createdAt,value
2019-05-21T00:02:25.854Z,65.51
2019-05-21T00:04:54.370Z,65.97
2019-05-21T00:07:22.891Z,65.96
2019-05-21T00:09:51.402Z,65.28
2019-05-21T00:12:19.906Z,65.76
2019-05-21T00:14:48.734Z,65.94
2019-05-21T00:17:17.294Z,66.17
2019-05-21T00:19:45.806Z,66.30
2019-05-21T00:22:14.352Z,65.70
2019-05-21T00:24:42.899Z,65.54
2019-05-21T00:27:11.411Z,66.42
2019-05-21T00:30:16.597Z,65.96
2019-05-21T00:33:21.597Z,65.72
2019-05-21T00:36:28.269Z,65.55
2019-05-21T00:39:32.761Z,65.91
2019-05-21T00:42:01.014Z,66.25
2019-05-21T00:44:30.611Z,66.92
2019-05-21T00:46:59.117Z,66.09
2019-05-21T00:49:27.616Z,65.47
2019-05-21T00:52:07.129Z,66.24
2019-05-21T00:54:26.355Z,66.63
2019-05-21T00:56:54.909Z,66.08
2019-05-21T00:59:23.690Z,65.62
2019-05-21T01:01:52.470Z,65.64
2019-05-21T01:04:20.974Z,65.87
2019-05-21T01:06:49.480Z,66.32
2019-05-21T01:09:17.994Z,66.63
2019-05-21T01:11:46.480Z,66.50
2019-05-21T01:14:15.310Z,66.35
2019-05-21T01:16:43.815Z,66.76
2019-05-21T01:19:12.612Z,67.40
2019-05-21T01:21:41.129Z,67.76
2019-05-21T01:24:10.041Z,68.20
2019-05-21T01:26:38.822Z,68.15
2019-05-21T01:29:07.320Z,67.97
2019-05-21T01:31:35.811Z,67.95
2019-05-21T01:34:04.927Z,67.76
2019-05-21T01:36:33.416Z,68.03
2019-05-21T01:39:01.973Z,66.97
2019-05-21T01:41:30.459Z,67.13
2019-05-21T01:43:58.966Z,67.36
2019-05-21T01:46:27.463Z,67.67
2019-05-21T01:48:56.032Z,67.80
2019-05-21T01:51:24.533Z,68.62
2019-05-21T01:53:53.042Z,69.11
2019-05-21T01:56:21.592Z,68.68
2019-05-21T01:58:50.447Z,68.84
2019-05-21T02:01:19.237Z,69.25
2019-05-21T02:03:48.183Z,68.99
2019-05-21T02:06:16.675Z,68.49
2019-05-21T02:08:45.296Z,67.65
2019-05-21T02:11:13.821Z,68.11
2019-05-21T02:13:42.417Z,68.49
2019-05-21T02:16:10.982Z,68.35
2019-05-21T02:18:39.505Z,67.71
2019-05-21T02:21:08.021Z,68.11
2019-05-21T02:23:37.135Z,67.49
2019-05-21T02:26:05.670Z,66.86
2019-05-21T02:28:34.211Z,66.19
2019-05-21T02:31:02.702Z,66.27
2019-05-21T02:33:31.237Z,66.33
2019-05-21T02:35:59.743Z,65.55
2019-05-21T02:38:28.273Z,65.02
2019-05-21T02:40:56.771Z,65.02
2019-05-21T02:43:25.281Z,65.05
2019-05-21T02:45:53.815Z,66.18
2019-05-21T02:48:22.317Z,67.06
2019-05-21T02:50:51.211Z,67.74
2019-05-21T02:53:19.695Z,69.04
2019-05-21T02:55:48.207Z,69.10
2019-05-21T02:58:16.694Z,70.18
2019-05-21T03:00:59.133Z,70.43
2019-05-21T03:03:29.558Z,71.03
2019-05-21T03:06:13.221Z,71.49
2019-05-21T03:08:29.006Z,71.65
2019-05-21T03:10:57.748Z,72.12
2019-05-21T03:13:26.218Z,72.49
2019-05-21T03:15:54.715Z,72.03
2019-05-21T03:18:23.213Z,72.87
2019-05-21T03:20:52.127Z,72.73
2019-05-21T03:23:20.623Z,72.53
2019-05-21T03:25:49.155Z,72.44
2019-05-21T03:28:17.947Z,72.93
2019-05-21T03:30:46.486Z,73.17
2019-05-21T03:33:14.982Z,72.23
2019-05-21T03:35:43.502Z,73.04
2019-05-21T03:38:11.984Z,72.78
2019-05-21T03:40:40.787Z,73.63
2019-05-21T03:43:09.280Z,72.98
2019-05-21T03:45:37.791Z,74.09
2019-05-21T03:48:06.280Z,75.54
2019-05-21T03:50:34.833Z,76.44
2019-05-21T03:53:03.418Z,77.48
2019-05-21T03:55:31.997Z,77.68
2019-05-21T03:58:00.505Z,77.46
2019-05-21T04:00:28.977Z,76.95
2019-05-21T04:02:57.479Z,76.29
2019-05-21T04:05:26.323Z,76.20
2019-05-21T04:07:54.955Z,76.09
2019-05-21T04:10:23.881Z,76.27
2019-05-21T04:13:17.461Z,76.65
2019-05-21T04:15:58.566Z,77.38
2019-05-21T04:18:32.255Z,76.73
2019-05-21T04:21:00.740Z,76.49
2019-05-21T04:23:29.268Z,76.45
2019-05-21T04:25:57.995Z,77.02
2019-05-21T04:28:27.018Z,76.81
2019-05-21T04:30:55.542Z,76.11
2019-05-21T04:33:24.048Z,76.20
2019-05-21T04:35:52.854Z,75.88
2019-05-21T04:38:21.354Z,75.59
2019-05-21T04:40:49.842Z,76.98
2019-05-21T04:43:18.338Z,77.20
2019-05-21T04:45:47.068Z,77.66
2019-05-21T04:48:16.025Z,78.93
2019-05-21T04:50:44.503Z,78.06
2019-05-21T04:53:13.035Z,77.96
2019-05-21T04:55:41.840Z,78.18
2019-05-21T04:58:10.337Z,78.62
2019-05-21T05:00:38.834Z,77.79
2019-05-21T05:03:07.605Z,78.19
2019-05-21T05:05:36.098Z,77.83
2019-05-21T05:08:06.929Z,77.89
2019-05-21T05:10:35.104Z,76.11
2019-05-21T05:13:03.655Z,76.58
2019-05-21T05:15:32.756Z,77.05
2019-05-21T05:18:01.250Z,77.14
2019-05-21T05:20:29.787Z,77.25
2019-05-21T05:22:58.288Z,77.10
2019-05-21T05:25:26.782Z,75.97
2019-05-21T05:27:55.327Z,76.78
2019-05-21T05:30:23.898Z,76.11
2019-05-21T05:32:52.389Z,76.46
2019-05-21T05:35:21.255Z,76.22
2019-05-21T05:37:50.365Z,75.95
2019-05-21T05:40:18.867Z,75.73
2019-05-21T05:42:47.358Z,75.19
2019-05-21T05:45:15.858Z,74.91
2019-05-21T05:47:44.344Z,74.56
2019-05-21T05:50:14.896Z,74.95
2019-05-21T05:52:43.394Z,74.89
2019-05-21T05:55:12.273Z,74.50
2019-05-21T05:57:40.932Z,74.10
2019-05-21T06:00:11.790Z,74.46
2019-05-21T06:02:40.592Z,74.61
2019-05-21T06:05:09.404Z,74.89
2019-05-21T06:07:38.171Z,75.84
2019-05-21T06:10:06.709Z,76.45
2019-05-21T06:12:35.287Z,77.22
2019-05-21T06:15:03.966Z,77.22
2019-05-21T06:17:32.433Z,78.03
2019-05-21T06:20:00.925Z,77.78
2019-05-21T06:22:29.404Z,77.11
2019-05-21T06:24:57.999Z,77.48
2019-05-21T06:27:26.501Z,77.17
2019-05-21T06:29:55.345Z,76.83
2019-05-21T06:32:23.836Z,77.63
2019-05-21T06:34:52.341Z,78.30
2019-05-21T06:37:20.827Z,78.26
2019-05-21T06:39:50.407Z,79.02
2019-05-21T06:42:18.897Z,79.14
2019-05-21T06:44:47.389Z,79.18
2019-05-21T06:47:15.890Z,79.28
2019-05-21T06:49:44.381Z,78.48
2019-05-21T06:52:13.277Z,77.80
2019-05-21T06:54:41.733Z,77.96
2019-05-21T06:57:10.245Z,78.12
2019-05-21T06:59:38.823Z,78.59
2019-05-21T07:02:07.324Z,78.72
2019-05-21T07:04:35.921Z,77.22
2019-05-21T07:07:04.337Z,77.83
2019-05-21T07:09:32.849Z,78.77
2019-05-21T07:12:01.600Z,79.03
2019-05-21T07:14:30.366Z,78.99
2019-05-21T07:16:58.878Z,77.92
2019-05-21T07:19:27.780Z,78.22
2019-05-21T07:22:11.411Z,78.00
2019-05-21T07:24:28.243Z,77.49
2019-05-21T07:26:57.019Z,77.81
2019-05-21T07:29:25.539Z,78.97
2019-05-21T07:31:54.211Z,78.83
2019-05-21T07:34:22.801Z,78.63
2019-05-21T07:36:51.286Z,78.04
2019-05-21T07:39:19.794Z,80.25
2019-05-21T07:41:48.294Z,80.90
2019-05-21T07:44:16.771Z,79.70
2019-05-21T07:46:45.252Z,79.61
2019-05-21T07:49:13.739Z,80.19
2019-05-21T07:51:42.273Z,78.53
2019-05-21T07:54:10.758Z,78.76
2019-05-21T07:56:39.339Z,77.75
2019-05-21T07:59:08.426Z,77.83
2019-05-21T08:01:36.940Z,77.98
2019-05-21T08:04:05.423Z,75.73
2019-05-21T08:06:34.248Z,75.70
2019-05-21T08:09:13.514Z,74.93
2019-05-21T08:11:33.788Z,74.38
2019-05-21T08:14:02.274Z,74.97
2019-05-21T08:16:30.781Z,74.52
2019-05-21T08:18:59.274Z,74.89
2019-05-21T08:21:27.772Z,73.89
2019-05-21T08:23:56.252Z,73.54
2019-05-21T08:26:24.751Z,71.60
2019-05-21T08:28:53.588Z,72.08
2019-05-21T08:31:22.443Z,72.29
2019-05-21T08:33:50.957Z,71.89
2019-05-21T08:36:19.462Z,71.15
2019-05-21T08:38:47.973Z,70.99
2019-05-21T08:41:16.552Z,71.60
2019-05-21T08:43:45.035Z,71.81
2019-05-21T08:46:13.538Z,71.91
2019-05-21T08:48:42.048Z,72.25
2019-05-21T08:51:10.541Z,73.14
2019-05-21T08:53:39.036Z,73.30
2019-05-21T08:56:07.803Z,72.69
2019-05-21T08:58:36.312Z,73.07
2019-05-21T09:01:04.846Z,72.78
2019-05-21T09:03:33.347Z,72.19
2019-05-21T09:06:01.839Z,72.65
2019-05-21T09:08:30.633Z,71.48
2019-05-21T09:10:59.156Z,71.90
2019-05-21T09:13:27.989Z,71.61
2019-05-21T09:15:56.532Z,71.51
2019-05-21T09:18:25.276Z,70.92
2019-05-21T09:20:53.758Z,70.14
2019-05-21T09:23:22.348Z,69.89
2019-05-21T09:25:50.855Z,70.11
2019-05-21T09:28:19.341Z,70.60
2019-05-21T09:30:47.821Z,70.32
2019-05-21T09:33:16.355Z,70.10
2019-05-21T09:35:44.889Z,70.27
2019-05-21T09:38:13.548Z,69.85
2019-05-21T09:40:42.076Z,71.01
2019-05-21T09:43:10.648Z,71.27
2019-05-21T09:45:39.603Z,70.78
2019-05-21T09:48:08.365Z,69.43
2019-05-21T09:50:37.230Z,69.39
2019-05-21T09:53:05.815Z,69.28
2019-05-21T09:55:34.528Z,68.94
2019-05-21T09:58:24.847Z,69.55
2019-05-21T10:01:18.409Z,68.60
2019-05-21T10:03:57.688Z,69.43
2019-05-21T10:06:26.541Z,69.44
2019-05-21T10:08:55.105Z,69.79
2019-05-21T10:11:23.686Z,69.99
2019-05-21T10:13:52.275Z,70.37
2019-05-21T10:16:21.347Z,69.79
2019-05-21T10:18:50.290Z,69.15
2019-05-21T10:21:19.106Z,68.71
2019-05-21T10:23:47.646Z,68.33
2019-05-21T10:26:16.123Z,67.73
2019-05-21T10:28:44.675Z,66.94
2019-05-21T10:31:13.173Z,67.70
2019-05-21T10:33:41.782Z,67.92
2019-05-21T10:36:11.060Z,68.50
2019-05-21T10:38:40.260Z,69.63
2019-05-21T10:41:08.840Z,69.77
2019-05-21T10:43:37.413Z,68.67
2019-05-21T10:46:05.986Z,68.66
2019-05-21T10:48:34.550Z,69.01
2019-05-21T10:51:03.059Z,69.59
2019-05-21T10:53:31.552Z,69.85
2019-05-21T10:56:00.060Z,69.11
2019-05-21T10:58:29.005Z,67.99
2019-05-21T11:01:04.551Z,68.28
2019-05-21T11:03:51.003Z,67.37
2019-05-21T11:06:19.647Z,66.10
2019-05-21T11:08:48.573Z,66.98
2019-05-21T11:11:21.074Z,67.63
2019-05-21T11:13:47.802Z,68.55
2019-05-21T11:16:16.712Z,68.86
2019-05-21T11:18:45.233Z,70.11
2019-05-21T11:21:13.733Z,70.00
2019-05-21T11:23:42.543Z,69.52
2019-05-21T11:26:11.866Z,70.04
2019-05-21T11:28:40.488Z,69.70
2019-05-21T11:31:08.984Z,69.71
2019-05-21T11:33:37.525Z,69.29
2019-05-21T11:36:06.118Z,69.43
2019-05-21T11:38:39.942Z,69.38
2019-05-21T11:41:05.246Z,70.10
2019-05-21T11:43:33.792Z,69.89
2019-05-21T11:46:03.254Z,68.78
2019-05-21T11:48:31.875Z,69.46
2019-05-21T11:51:00.583Z,68.53
2019-05-21T11:53:31.936Z,68.11
2019-05-21T11:55:59.473Z,67.78
2019-05-21T11:58:28.090Z,66.08
2019-05-21T12:00:56.635Z,66.40
2019-05-21T12:03:25.521Z,65.00
2019-05-21T12:05:54.446Z,65.67
2019-05-21T12:08:22.988Z,66.15
2019-05-21T12:10:51.880Z,65.39
2019-05-21T12:13:20.760Z,65.54
2019-05-21T12:15:49.569Z,66.25
2019-05-21T12:18:18.065Z,65.15
2019-05-21T12:20:46.601Z,63.65
2019-05-21T12:23:15.163Z,63.97
2019-05-21T12:25:43.652Z,62.30
2019-05-21T12:28:12.271Z,62.81
2019-05-21T12:30:41.283Z,62.84
2019-05-21T12:33:09.869Z,61.97
2019-05-21T12:35:38.445Z,61.99
2019-05-21T12:38:07.235Z,62.13
2019-05-21T12:40:35.914Z,63.00
2019-05-21T12:43:05.036Z,63.65
2019-05-21T12:45:33.598Z,63.74
2019-05-21T12:48:02.233Z,64.19
2019-05-21T12:50:31.048Z,63.27
2019-05-21T12:52:59.981Z,63.81
2019-05-21T12:55:28.604Z,65.04
2019-05-21T12:57:57.168Z,65.55
2019-05-21T13:00:29.494Z,65.25
2019-05-21T13:02:58.347Z,65.92
2019-05-21T13:05:26.892Z,65.24
2019-05-21T13:07:55.457Z,64.66
2019-05-21T13:10:26.759Z,63.25
2019-05-21T13:12:54.378Z,64.17
2019-05-21T13:15:22.979Z,65.44
2019-05-21T13:17:51.533Z,65.70
2019-05-21T13:20:20.236Z,64.61
2019-05-21T13:22:49.108Z,64.39
2019-05-21T13:25:17.992Z,64.58
2019-05-21T13:27:46.501Z,64.23
2019-05-21T13:30:15.035Z,64.07
2019-05-21T13:32:44.014Z,64.35
2019-05-21T13:35:12.684Z,63.10
2019-05-21T13:37:41.312Z,62.97
2019-05-21T13:40:09.886Z,63.34
2019-05-21T13:42:38.485Z,63.96
2019-05-21T13:45:07.249Z,63.97
2019-05-21T13:47:35.839Z,64.45
2019-05-21T13:50:05.056Z,65.00
2019-05-21T13:52:33.708Z,64.36
2019-05-21T13:55:02.232Z,64.53
2019-05-21T13:57:30.782Z,64.92
2019-05-21T13:59:59.378Z,66.02
2019-05-21T14:02:27.973Z,64.91
2019-05-21T14:04:56.571Z,64.73
2019-05-21T14:07:25.577Z,64.64
2019-05-21T14:10:13.422Z,64.85
2019-05-21T14:12:24.659Z,64.44
2019-05-21T14:14:53.187Z,64.74
2019-05-21T14:17:21.658Z,64.43
2019-05-21T14:19:50.232Z,62.96
2019-05-21T14:22:18.715Z,62.54
2019-05-21T14:24:47.246Z,63.56
2019-05-21T14:27:15.733Z,63.58
2019-05-21T14:29:44.539Z,62.98
2019-05-21T14:32:13.032Z,62.48
2019-05-21T14:34:41.603Z,61.79
2019-05-21T14:37:10.121Z,61.89
2019-05-21T14:39:38.676Z,62.69
2019-05-21T14:42:07.161Z,62.90
2019-05-21T14:44:35.657Z,62.24
2019-05-21T14:47:04.213Z,61.49
2019-05-21T14:49:32.798Z,60.65
2019-05-21T14:52:01.535Z,60.41
2019-05-21T14:54:30.372Z,60.15
2019-05-21T14:56:58.978Z,59.95
2019-05-21T14:59:27.464Z,60.65
2019-05-21T15:01:56.042Z,59.78
2019-05-21T15:04:25.177Z,59.34
2019-05-21T15:06:54.048Z,59.45
2019-05-21T15:09:22.542Z,59.60
2019-05-21T15:11:51.277Z,60.43
2019-05-21T15:14:19.784Z,60.64
2019-05-21T15:16:48.517Z,60.77
2019-05-21T15:19:17.323Z,60.37
2019-05-21T15:21:49.922Z,59.96
2019-05-21T15:24:18.416Z,61.16
2019-05-21T15:26:46.939Z,61.58
2019-05-21T15:29:15.780Z,63.00
2019-05-21T15:31:44.280Z,63.81
2019-05-21T15:34:12.779Z,63.16
2019-05-21T15:36:41.615Z,63.38
2019-05-21T15:39:10.102Z,63.36
2019-05-21T15:41:38.593Z,62.83
2019-05-21T15:44:07.488Z,62.96
2019-05-21T15:46:47.813Z,63.38
2019-05-21T15:49:06.462Z,63.42
2019-05-21T15:51:34.997Z,63.73
2019-05-21T15:54:03.527Z,63.75
2019-05-21T15:56:32.070Z,64.22
2019-05-21T15:59:01.162Z,65.00
2019-05-21T16:01:29.690Z,64.55
2019-05-21T16:03:58.507Z,63.78
2019-05-21T16:06:27.066Z,63.66
2019-05-21T16:08:55.565Z,63.61
2019-05-21T16:11:28.420Z,63.10
2019-05-21T16:13:54.285Z,63.61
2019-05-21T16:16:22.787Z,63.25
2019-05-21T16:18:51.307Z,63.58
2019-05-21T16:21:19.797Z,64.07
2019-05-21T16:23:48.304Z,63.66
2019-05-21T16:26:16.820Z,63.45
2019-05-21T16:28:45.322Z,63.27
2019-05-21T16:31:14.066Z,64.62
2019-05-21T16:33:42.584Z,64.22
2019-05-21T16:36:11.171Z,64.41
2019-05-21T16:38:39.761Z,64.90
2019-05-21T16:41:08.369Z,64.57
2019-05-21T16:43:37.139Z,65.41
2019-05-21T16:46:05.636Z,64.99
2019-05-21T16:48:34.212Z,65.70
2019-05-21T16:51:03.747Z,65.45
2019-05-21T16:53:32.309Z,65.42
2019-05-21T16:56:00.795Z,65.38
2019-05-21T16:58:29.686Z,64.87
2019-05-21T17:00:58.194Z,64.92
2019-05-21T17:03:26.695Z,65.48
2019-05-21T17:05:55.197Z,65.57
2019-05-21T17:08:23.739Z,64.87
2019-05-21T17:10:52.272Z,64.68
2019-05-21T17:13:20.804Z,64.96
2019-05-21T17:15:49.559Z,64.53
2019-05-21T17:18:18.071Z,64.91
2019-05-21T17:20:46.617Z,65.05
2019-05-21T17:23:15.152Z,64.84
2019-05-21T17:25:44.005Z,64.35
2019-05-21T17:28:12.602Z,65.20
2019-05-21T17:30:41.136Z,65.54
2019-05-21T17:33:09.960Z,65.29
2019-05-21T17:35:38.764Z,65.18
2019-05-21T17:38:07.436Z,65.93
2019-05-21T17:40:36.077Z,65.24
2019-05-21T17:43:04.597Z,65.47
2019-05-21T17:45:33.117Z,65.19
2019-05-21T17:48:01.640Z,64.78
2019-05-21T17:50:30.250Z,66.03
2019-05-21T17:52:58.856Z,66.08
2019-05-21T17:55:28.161Z,66.04
2019-05-21T17:57:56.780Z,65.47
2019-05-21T18:00:39.409Z,65.68
2019-05-21T18:03:08.184Z,65.60
2019-05-21T18:05:36.712Z,65.28
2019-05-21T18:08:05.497Z,65.12
2019-05-21T18:10:34.498Z,65.41
2019-05-21T18:13:03.479Z,65.53
2019-05-21T18:15:32.197Z,65.26
2019-05-21T18:18:01.009Z,65.37
2019-05-21T18:20:29.993Z,65.99
2019-05-21T18:22:59.532Z,65.74
2019-05-21T18:25:28.115Z,66.03
2019-05-21T18:27:56.694Z,65.45
2019-05-21T18:30:25.235Z,65.35
2019-05-21T18:32:54.531Z,64.73
2019-05-21T18:35:23.048Z,64.60
2019-05-21T18:37:51.916Z,65.03
2019-05-21T18:40:20.403Z,65.00
2019-05-21T18:42:48.923Z,65.97
2019-05-21T18:45:17.592Z,66.27
2019-05-21T18:47:46.110Z,66.45
2019-05-21T18:50:14.711Z,65.99
2019-05-21T18:52:43.297Z,66.86
2019-05-21T18:55:13.049Z,66.49
2019-05-21T18:57:41.579Z,67.01
2019-05-21T19:00:10.535Z,67.29
2019-05-21T19:02:39.137Z,67.05
2019-05-21T19:05:07.667Z,67.28
2019-05-21T19:07:36.453Z,66.63
2019-05-21T19:10:05.556Z,66.86
2019-05-21T19:12:38.136Z,66.40
2019-05-21T19:15:06.627Z,66.41
2019-05-21T19:17:36.082Z,66.08
2019-05-21T19:20:07.010Z,66.81
2019-05-21T19:22:35.917Z,66.18
2019-05-21T19:25:05.225Z,65.89
2019-05-21T19:27:33.868Z,65.97
2019-05-21T19:30:02.648Z,67.17
2019-05-21T19:32:31.318Z,67.18
2019-05-21T19:34:59.921Z,67.19
2019-05-21T19:37:28.526Z,66.57
2019-05-21T19:39:57.088Z,66.62
2019-05-21T19:42:25.624Z,66.95
2019-05-21T19:44:54.258Z,66.80
2019-05-21T19:47:22.790Z,66.79
2019-05-21T19:49:51.303Z,66.78
2019-05-21T19:52:19.867Z,66.65
2019-05-21T19:54:48.386Z,66.58
2019-05-21T19:57:17.407Z,66.82
2019-05-21T19:59:45.963Z,66.62
2019-05-21T20:02:14.493Z,66.34
2019-05-21T20:04:45.033Z,66.18
2019-05-21T20:07:15.221Z,65.95
2019-05-21T20:09:45.647Z,65.27
2019-05-21T20:12:14.383Z,65.53
2019-05-21T20:14:42.936Z,65.38
2019-05-21T20:17:12.067Z,65.07
2019-05-21T20:19:42.224Z,64.46
2019-05-21T20:22:11.402Z,64.52
2019-05-21T20:24:41.472Z,64.89
2019-05-21T20:27:10.842Z,65.57
2019-05-21T20:29:39.351Z,65.96
2019-05-21T20:32:09.136Z,65.63
2019-05-21T20:34:38.757Z,65.57
2019-05-21T20:37:07.501Z,65.81
2019-05-21T20:39:37.870Z,65.98
2019-05-21T20:42:08.000Z,66.10
2019-05-21T20:44:36.507Z,65.35
2019-05-21T20:47:05.862Z,65.47
2019-05-21T20:49:35.269Z,64.85
2019-05-21T20:52:17.816Z,64.69
2019-05-21T20:54:34.974Z,64.74
2019-05-21T20:57:05.481Z,64.76
2019-05-21T20:59:34.063Z,64.41
2019-05-21T21:02:08.067Z,64.83
2019-05-21T21:04:35.033Z,64.69
2019-05-21T21:07:05.099Z,64.29
2019-05-21T21:09:33.688Z,64.60
2019-05-21T21:12:02.194Z,64.48
2019-05-21T21:14:31.669Z,64.52
2019-05-21T21:17:00.457Z,63.83
2019-05-21T21:19:28.961Z,64.40
2019-05-21T21:21:57.722Z,64.83
2019-05-21T21:24:26.479Z,64.96
2019-05-21T21:26:55.049Z,64.77
2019-05-21T21:29:23.884Z,65.04
2019-05-21T21:31:52.388Z,65.29
2019-05-21T21:34:20.892Z,64.13
2019-05-21T21:36:53.145Z,64.70
2019-05-21T21:39:20.581Z,65.17
2019-05-21T21:41:49.745Z,64.89
2019-05-21T21:44:33.181Z,64.84
2019-05-21T21:46:49.677Z,65.56
2019-05-21T21:49:19.363Z,65.94
2019-05-21T21:51:48.031Z,65.59
2019-05-21T21:54:16.758Z,65.07
2019-05-21T21:56:45.349Z,64.93
2019-05-21T21:59:13.868Z,64.57
2019-05-21T22:01:49.079Z,63.95
2019-05-21T22:04:20.176Z,63.83
2019-05-21T22:06:49.304Z,63.34
2019-05-21T22:09:21.530Z,63.82
2019-05-21T22:11:51.959Z,63.72
2019-05-21T22:14:20.676Z,64.19
2019-05-21T22:16:51.819Z,64.51
2019-05-21T22:19:21.378Z,63.88
2019-05-21T22:21:50.363Z,63.51
2019-05-21T22:24:19.044Z,63.38
2019-05-21T22:26:48.760Z,64.00
2019-05-21T22:29:17.924Z,64.19
2019-05-21T22:31:46.587Z,64.75
2019-05-21T22:34:15.086Z,64.05
2019-05-21T22:36:43.596Z,63.08
2019-05-21T22:39:22.791Z,63.94
2019-05-21T22:41:51.476Z,63.64
2019-05-21T22:44:20.099Z,64.04
2019-05-21T22:46:49.271Z,64.10
2019-05-21T22:49:17.803Z,64.47
2019-05-21T22:51:46.316Z,63.97
2019-05-21T22:54:14.811Z,63.90
2019-05-21T22:56:43.323Z,63.46
2019-05-21T22:59:11.918Z,62.35
2019-05-21T23:01:41.248Z,62.40
2019-05-21T23:04:09.717Z,62.25
2019-05-21T23:06:38.292Z,62.28
2019-05-21T23:09:07.602Z,61.94
2019-05-21T23:11:36.089Z,61.58
2019-05-21T23:14:04.865Z,62.25
2019-05-21T23:16:33.371Z,63.42
2019-05-21T23:19:02.199Z,64.18
2019-05-21T23:21:31.059Z,63.77
2019-05-21T23:23:59.963Z,62.72
2019-05-21T23:26:28.982Z,62.84
2019-05-21T23:28:57.880Z,61.82
2019-05-21T23:31:26.498Z,61.48
2019-05-21T23:33:56.092Z,61.37
2019-05-21T23:36:24.599Z,61.72
2019-05-21T23:38:53.447Z,62.03
2019-05-21T23:41:21.953Z,61.33
2019-05-21T23:43:50.621Z,61.58
2019-05-21T23:46:20.170Z,60.89
2019-05-21T23:48:49.325Z,61.01
2019-05-21T23:51:17.967Z,61.19
2019-05-21T23:53:46.838Z,60.95
2019-05-21T23:56:15.352Z,61.31
2019-05-21T23:58:47.962Z,60.88
